Time;durP1;ratioP1;P1;durP2;ratioP2;P2;SDS_P1;SDS_P2;PMS_P1;PMS_P2;Temp;Humidity;BMP_temperature;BMP_pressure;BME280_temperature;BME280_humidity;BME280_pressure;Samples;Min_cycle;Max_cycle;Signal;HPM_P1;HPM_P2
2022/08/26 00:03:15;;;;;;;31.05;10.40;;;;;;;20.63;100.00;99220.66;8374055;28;20127;-73
2022/08/26 00:07:16;;;;;;;28.60;11.57;;;;;;;20.55;100.00;99213.50;8408102;28;20052;-73
2022/08/26 00:11:18;;;;;;;37.92;11.18;;;;;;;20.49;100.00;99209.50;8419395;28;20104;-73
2022/08/26 00:15:26;;;;;;;27.55;10.38;;;;;;;20.42;100.00;99203.91;8386493;28;20480;-73
2022/08/26 00:19:37;;;;;;;32.63;10.45;;;;;;;20.36;100.00;99205.41;8382274;28;20079;-73
2022/08/26 00:23:43;;;;;;;27.88;11.48;;;;;;;20.28;100.00;99206.44;8389063;28;20052;-73
2022/08/26 00:27:47;;;;;;;31.63;11.65;;;;;;;20.24;100.00;99197.38;8428337;28;20036;-74
2022/08/26 00:31:50;;;;;;;26.52;11.10;;;;;;;20.19;100.00;99190.28;8374824;28;20111;-73
2022/08/26 00:35:51;;;;;;;30.95;10.18;;;;;;;20.16;100.00;99201.16;8298102;28;20053;-73
2022/08/26 00:40:00;;;;;;;25.00;10.02;;;;;;;20.10;100.00;99203.44;8291822;28;20170;-74
2022/08/26 00:44:18;;;;;;;31.23;11.45;;;;;;;20.05;100.00;99205.69;8265231;28;20060;-73
2022/08/26 00:48:39;;;;;;;27.92;10.63;;;;;;;19.98;100.00;99200.13;8256128;28;20413;-73
2022/08/26 00:52:45;;;;;;;29.33;10.05;;;;;;;19.95;100.00;99200.84;8282022;28;20158;-73
2022/08/26 00:57:03;;;;;;;29.10;10.63;;;;;;;19.91;100.00;99200.81;8277403;28;20509;-73
2022/08/26 01:01:19;;;;;;;20.77;10.27;;;;;;;19.89;100.00;99191.34;8292875;28;20553;-73
2022/08/26 01:05:30;;;;;;;25.58;11.20;;;;;;;19.83;100.00;99183.44;8340726;28;20053;-74
2022/08/26 01:09:50;;;;;;;32.20;10.88;;;;;;;19.80;100.00;99192.41;8396870;28;20051;-73
2022/08/26 01:14:13;;;;;;;30.52;9.93;;;;;;;19.76;100.00;99183.34;8394882;28;20039;-73
2022/08/26 01:18:17;;;;;;;17.77;10.60;;;;;;;19.71;100.00;99191.88;8383045;28;20048;-73
2022/08/26 01:22:58;;;;;;;24.67;11.35;;;;;;;19.67;100.00;99191.03;8426302;28;20461;-73
2022/08/26 01:27:15;;;;;;;18.25;9.73;;;;;;;19.60;100.00;99185.44;8351355;28;20500;-73
2022/08/26 01:31:21;;;;;;;21.13;10.43;;;;;;;19.56;100.00;99195.56;8310470;28;20095;-74
2022/08/26 01:35:30;;;;;;;28.30;10.30;;;;;;;19.54;100.00;99192.38;8331278;28;20080;-74
2022/08/26 01:39:36;;;;;;;21.33;10.90;;;;;;;19.51;100.00;99186.84;8342974;28;20052;-73
2022/08/26 01:43:48;;;;;;;23.77;10.40;;;;;;;19.48;100.00;99185.63;8273906;28;20081;-73
2022/08/26 01:47:57;;;;;;;27.05;10.13;;;;;;;19.44;100.00;99171.06;8275265;28;20057;-73
2022/08/26 01:52:10;;;;;;;22.25;9.15;;;;;;;19.43;100.00;99174.94;8371529;28;20425;-73
2022/08/26 01:56:19;;;;;;;29.52;9.98;;;;;;;19.44;100.00;99173.78;8353331;28;20504;-73
2022/08/26 02:00:25;;;;;;;;;;;;;;;19.50;100.00;99180.59;8388302;28;20056;-73
2022/08/26 02:04:56;;;;;;;21.02;9.40;;;;;;;19.51;99.54;99176.66;8387571;28;19973;-72
2022/08/26 02:09:12;;;;;;;19.75;9.57;;;;;;;19.54;98.99;99175.16;8223889;28;20046;-72
2022/08/26 02:13:24;;;;;;;21.15;9.23;;;;;;;19.54;98.86;99175.16;8246549;28;20851;-72
2022/08/26 02:17:42;;;;;;;19.17;9.45;;;;;;;19.51;98.83;99182.13;8268901;28;20057;-72
2022/08/26 02:21:48;;;;;;;18.23;8.77;;;;;;;19.47;98.93;99181.28;8257882;28;20056;-72
2022/08/26 02:26:10;;;;;;;30.65;9.55;;;;;;;19.40;99.04;99178.44;8272930;28;20057;-72
2022/08/26 02:30:27;;;;;;;21.42;8.75;;;;;;;19.35;99.17;99176.75;8224723;28;20046;-73
2022/08/26 02:34:44;;;;;;;23.88;9.10;;;;;;;19.30;99.13;99176.28;8230766;28;20046;-73
2022/08/26 02:38:48;;;;;;;24.05;8.60;;;;;;;19.24;99.28;99177.75;8233739;28;20074;-73
2022/08/26 02:43:06;;;;;;;24.17;8.73;;;;;;;19.17;99.36;99177.63;8166849;29;20063;-72
2022/08/26 02:47:24;;;;;;;25.77;9.10;;;;;;;19.13;99.16;99177.56;8221429;28;20133;-73
2022/08/26 02:51:32;;;;;;;24.80;10.82;;;;;;;19.11;99.16;99181.81;8200373;28;20519;-73
2022/08/26 02:55:41;;;;;;;18.58;9.43;;;;;;;19.06;99.19;99173.88;8230041;28;20051;-73
2022/08/26 02:59:50;;;;;;;24.23;9.23;;;;;;;19.01;99.16;99174.19;8250775;28;20164;-73
2022/08/26 03:03:58;;;;;;;28.38;9.82;;;;;;;18.96;99.14;99167.84;8229848;28;20054;-73
2022/08/26 03:08:05;;;;;;;18.95;8.80;;;;;;;18.92;99.05;99167.00;8229778;28;20447;-73
2022/08/26 03:12:10;;;;;;;22.23;9.25;;;;;;;18.89;99.09;99166.91;8278288;28;20037;-73
2022/08/26 03:16:25;;;;;;;22.98;9.35;;;;;;;18.85;99.08;99175.06;8365405;28;20040;-73
2022/08/26 03:20:33;;;;;;;23.58;8.55;;;;;;;18.81;99.11;99166.00;8385963;28;20056;-73
2022/08/26 03:24:37;;;;;;;18.58;9.35;;;;;;;18.79;99.02;99162.84;8389097;28;20051;-73
2022/08/26 03:33:06;;;;;;;24.73;9.63;;;;;;;18.78;98.87;99155.78;8396195;28;20083;-74
2022/08/26 03:37:13;;;;;;;26.48;8.95;;;;;;;18.73;99.28;99155.28;8420471;28;20055;-73
2022/08/26 03:41:24;;;;;;;22.08;9.10;;;;;;;18.65;99.46;99151.63;8428102;28;20690;-74
2022/08/26 03:45:43;;;;;;;21.30;9.70;;;;;;;18.60;99.58;99146.44;8409067;28;20079;-74
2022/08/26 03:49:47;;;;;;;22.63;9.40;;;;;;;18.55;99.65;99146.75;8385379;28;20068;-74
2022/08/26 03:54:12;;;;;;;27.20;10.40;;;;;;;18.52;99.59;99148.19;8353111;28;20056;-74
2022/08/26 03:58:25;;;;;;;18.13;9.63;;;;;;;18.51;99.69;99151.28;8348063;28;20061;-74
2022/08/26 04:02:38;;;;;;;32.83;10.18;;;;;;;18.49;99.65;99148.13;8353616;28;20532;-75
2022/08/26 04:07:00;;;;;;;25.80;9.98;;;;;;;18.49;99.58;99148.13;8314552;28;20057;-75
2022/08/26 04:11:25;;;;;;;19.33;9.52;;;;;;;18.49;99.44;99148.13;8320745;28;20405;-73
2022/08/26 04:15:34;;;;;;;28.73;10.77;;;;;;;18.49;99.57;99153.63;8314534;28;20654;-74
2022/08/26 04:19:51;;;;;;;23.67;10.05;;;;;;;18.50;99.43;99144.25;8357390;28;20049;-74
2022/08/26 04:24:00;;;;;;;21.02;9.50;;;;;;;18.51;99.37;99145.81;8326803;28;20448;-74
2022/08/26 04:28:08;;;;;;;26.77;11.32;;;;;;;18.52;99.21;99148.19;8389585;28;20048;-73
2022/08/26 04:32:20;;;;;;;20.98;9.45;;;;;;;18.55;99.35;99152.22;8410169;28;20040;-74
2022/08/26 04:36:28;;;;;;;21.40;10.38;;;;;;;18.56;99.26;99153.75;8428566;28;20044;-74
2022/08/26 04:40:34;;;;;;;19.50;10.02;;;;;;;18.58;99.59;99146.00;8377873;28;20048;-74
2022/08/26 04:44:43;;;;;;;25.20;10.82;;;;;;;18.62;99.42;99151.53;8410317;28;20044;-74
2022/08/26 04:48:46;;;;;;;20.73;9.73;;;;;;;18.67;99.58;99160.25;8404572;28;20044;-75
2022/08/26 04:52:54;;;;;;;21.85;9.90;;;;;;;18.71;99.62;99161.13;8418208;28;20040;-73
2022/08/26 04:57:01;;;;;;;22.52;10.23;;;;;;;18.75;99.93;99161.97;8425235;28;20055;-74
2022/08/26 05:01:18;;;;;;;30.60;10.48;;;;;;;18.80;100.00;99153.47;8396012;28;20052;-75
2022/08/26 05:05:27;;;;;;;20.48;9.65;;;;;;;18.89;99.66;99151.28;8354731;28;20049;-74
2022/08/26 05:09:41;;;;;;;26.73;10.60;;;;;;;19.02;99.41;99159.34;8421195;28;20045;-74
2022/08/26 05:13:52;;;;;;;23.08;11.05;;;;;;;19.13;98.71;99160.34;8426151;28;20059;-74
2022/08/26 05:18:00;;;;;;;20.17;9.57;;;;;;;19.25;98.33;99151.94;8389260;28;20250;-75
2022/08/26 05:22:13;;;;;;;25.17;10.95;;;;;;;19.35;97.29;99159.56;8423338;28;20044;-74
2022/08/26 05:26:31;;;;;;;24.88;9.57;;;;;;;19.42;96.90;99157.72;8420788;28;20044;-75
2022/08/26 05:30:51;;;;;;;26.65;10.60;;;;;;;19.54;96.02;99175.94;8419284;28;20605;-74
2022/08/26 05:35:09;;;;;;;29.15;10.80;;;;;;;19.62;95.23;99176.84;8416774;28;20055;-75
2022/08/26 05:39:29;;;;;;;20.25;9.70;;;;;;;19.68;94.31;99169.91;8413275;28;20054;-75
2022/08/26 05:43:43;;;;;;;24.88;9.32;;;;;;;19.74;93.75;99171.97;8391754;28;20047;-75
2022/08/26 05:47:55;;;;;;;24.88;10.35;;;;;;;19.80;93.50;99162.28;8360729;28;20053;-76
2022/08/26 05:52:00;;;;;;;;;;;;;;;19.87;93.41;99167.09;8400300;28;20439;-74
2022/08/26 05:56:18;;;;;;;31.10;9.77;;;;;;;19.94;92.72;99155.41;8363779;28;20015;-74
2022/08/26 06:00:29;;;;;;;24.50;10.07;;;;;;;20.02;92.38;99152.41;8380332;28;20109;-74
2022/08/26 06:04:43;;;;;;;23.23;9.95;;;;;;;20.12;91.99;99145.50;8400420;28;20059;-74
2022/08/26 06:08:52;;;;;;;30.73;10.23;;;;;;;20.19;91.82;99145.59;8381080;28;20083;-74
2022/08/26 06:13:03;;;;;;;30.25;9.88;;;;;;;20.27;91.56;99152.75;8419915;28;20071;-74
2022/08/26 06:17:18;;;;;;;22.80;9.82;;;;;;;20.35;91.22;99154.47;8375991;28;20047;-74
2022/08/26 06:21:42;;;;;;;28.65;10.02;;;;;;;20.44;90.99;99152.22;8410585;28;20130;-74
2022/08/26 06:25:59;;;;;;;30.45;10.52;;;;;;;20.53;90.60;99160.97;8408728;28;20052;-75
2022/08/26 06:30:08;;;;;;;21.25;10.45;;;;;;;20.61;90.13;99162.63;8408465;28;20496;-74
2022/08/26 06:34:17;;;;;;;27.77;9.77;;;;;;;20.70;90.04;99158.81;8391094;28;20500;-74
2022/08/26 06:38:32;;;;;;;26.67;9.90;;;;;;;20.77;89.10;99158.91;8422507;28;20120;-74
2022/08/26 06:42:43;;;;;;;23.10;9.48;;;;;;;20.84;88.55;99164.44;8360516;28;20076;-74
2022/08/26 06:46:57;;;;;;;29.33;10.70;;;;;;;20.94;88.39;99169.25;8388257;28;20067;-74
2022/08/26 06:51:23;;;;;;;24.30;9.52;;;;;;;21.05;88.09;99161.91;8408042;28;20131;-74
2022/08/26 06:55:35;;;;;;;24.13;10.77;;;;;;;21.13;87.98;99155.34;8397424;28;20132;-74
2022/08/26 06:59:47;;;;;;;25.63;10.70;;;;;;;21.20;87.77;99158.22;8413256;28;20508;-74
2022/08/26 07:04:03;;;;;;;25.08;10.93;;;;;;;21.29;87.60;99164.16;8370277;28;20052;-73
2022/08/26 07:08:09;;;;;;;25.67;10.25;;;;;;;21.38;87.28;99161.88;8417921;28;20655;-74
2022/08/26 07:12:20;;;;;;;24.20;11.60;;;;;;;21.46;87.62;99160.81;8408293;28;20048;-74
2022/08/26 07:16:29;;;;;;;24.38;11.15;;;;;;;21.57;87.75;99162.84;8404686;28;20123;-74
2022/08/26 07:20:42;;;;;;;31.50;12.10;;;;;;;21.70;88.15;99164.09;8425795;28;20174;-74
2022/08/26 07:24:59;;;;;;;28.63;11.18;;;;;;;21.81;88.03;99164.97;8431428;28;20062;-74
2022/08/26 07:29:11;;;;;;;30.65;10.80;;;;;;;21.93;87.47;99170.19;8412664;28;20424;-73
2022/08/26 07:33:22;;;;;;;29.58;11.07;;;;;;;22.05;87.16;99172.63;8431377;28;20047;-74
2022/08/26 07:37:37;;;;;;;35.47;11.50;;;;;;;22.17;86.15;99175.06;8399084;28;20052;-73
2022/08/26 07:41:51;;;;;;;28.70;9.55;;;;;;;22.29;85.63;99177.50;8398493;28;20120;-74
2022/08/26 07:46:05;;;;;;;24.45;10.40;;;;;;;22.40;85.00;99168.50;8430290;28;20040;-74
2022/08/26 07:50:19;;;;;;;26.88;9.85;;;;;;;22.51;84.95;99172.09;8430393;28;20071;-74
2022/08/26 07:54:30;;;;;;;36.33;10.20;;;;;;;22.65;84.45;99169.41;8396673;28;20127;-74
2022/08/26 07:58:41;;;;;;;30.40;10.55;;;;;;;22.76;83.58;99162.00;8430213;28;20481;-75
2022/08/26 08:02:59;;;;;;;28.05;10.73;;;;;;;22.90;83.00;99170.31;8386569;28;20132;-74
2022/08/26 08:07:10;;;;;;;26.80;10.57;;;;;;;23.03;82.53;99177.03;8414713;28;20403;-74
2022/08/26 08:11:28;;;;;;;27.52;8.93;;;;;;;23.13;81.01;99179.03;8417573;28;20040;-74
2022/08/26 08:15:42;;;;;;;30.08;9.18;;;;;;;23.26;80.37;99178.66;8395854;28;20055;-74
2022/08/26 08:19:53;;;;;;;30.40;9.02;;;;;;;23.36;80.09;99172.38;8378243;28;20052;-74
2022/08/26 08:24:11;;;;;;;28.35;8.65;;;;;;;23.48;79.28;99180.28;8396442;28;20101;-74
2022/08/26 08:28:29;;;;;;;32.03;9.13;;;;;;;23.60;78.92;99171.63;8428921;28;20415;-73
2022/08/26 08:32:37;;;;;;;29.40;9.02;;;;;;;23.75;77.46;99167.66;8392065;28;20143;-73
2022/08/26 08:36:51;;;;;;;25.00;8.55;;;;;;;23.92;77.37;99172.38;8378902;28;20430;-74
2022/08/26 08:41:02;;;;;;;25.33;7.13;;;;;;;24.03;76.19;99171.59;8396122;28;20048;-74
2022/08/26 08:45:22;;;;;;;20.10;7.45;;;;;;;24.13;74.44;99159.75;8381839;28;20488;-74
2022/08/26 08:49:38;;;;;;;22.73;7.70;;;;;;;24.27;73.86;99165.28;8361698;28;20139;-74
2022/08/26 08:53:54;;;;;;;24.83;7.13;;;;;;;24.41;73.57;99170.72;8359268;28;20136;-74
2022/08/26 08:58:09;;;;;;;22.60;6.55;;;;;;;24.56;72.80;99155.69;8324515;28;20038;-74
2022/08/26 09:02:30;;;;;;;18.70;7.22;;;;;;;24.73;72.85;99154.81;8308895;28;20134;-73
2022/08/26 09:06:59;;;;;;;22.65;5.85;;;;;;;24.88;69.66;99149.25;8264581;28;20053;-74
2022/08/26 09:11:13;;;;;;;20.15;5.82;;;;;;;24.98;69.05;99149.19;8232216;28;20141;-74
2022/08/26 09:16:13;;;;;;;14.77;5.18;;;;;;;25.12;68.08;99148.31;8275998;28;20573;-73
2022/08/26 09:21:05;;;;;;;11.57;5.27;;;;;;;25.28;66.90;99140.28;8211870;28;20093;-74
2022/08/26 09:25:18;;;;;;;21.80;6.10;;;;;;;25.45;67.45;99150.44;8176481;28;20057;-74
2022/08/26 09:29:40;;;;;;;16.50;5.55;;;;;;;25.63;66.60;99153.88;8278792;28;20187;-74
2022/08/26 09:34:30;;;;;;;20.83;4.82;;;;;;;25.78;65.07;99148.22;8290609;28;20431;-74
2022/08/26 09:38:48;;;;;;;22.42;5.03;;;;;;;25.89;63.19;99140.59;8226331;28;20117;-75
2022/08/26 09:43:12;;;;;;;14.38;4.40;;;;;;;25.98;62.08;99138.13;8227010;28;20074;-74
2022/08/26 09:47:30;;;;;;;18.77;4.93;;;;;;;26.09;61.39;99133.28;8193700;29;20138;-74
2022/08/26 09:51:41;;;;;;;16.13;4.47;;;;;;;26.24;60.05;99137.50;8146015;29;20111;-74
2022/08/26 09:55:53;;;;;;;16.10;5.07;;;;;;;26.40;60.01;99126.63;8161756;29;20051;-74
2022/08/26 10:00:06;;;;;;;14.30;4.80;;;;;;;26.61;58.33;99119.25;8193774;29;20059;-74
2022/08/26 10:04:26;;;;;;;15.43;4.53;;;;;;;26.75;57.79;99124.59;8212664;28;20057;-75
2022/08/26 10:08:44;;;;;;;15.52;4.80;;;;;;;26.84;55.85;99127.63;8270860;28;20510;-74
2022/08/26 10:13:11;;;;;;;23.90;5.18;;;;;;;26.95;56.37;99128.31;8340972;28;20040;-75
2022/08/26 10:17:32;;;;;;;18.67;4.45;;;;;;;26.99;55.12;99112.41;8420550;28;20063;-74
2022/08/26 10:22:04;;;;;;;15.77;4.18;;;;;;;27.05;54.88;99121.81;8363340;28;20040;-74
2022/08/26 10:26:44;;;;;;;11.85;3.60;;;;;;;27.17;54.53;99112.94;8393692;28;20052;-74
2022/08/26 10:31:02;;;;;;;13.23;3.95;;;;;;;27.34;54.25;99104.75;8257768;28;20063;-74
2022/08/26 10:35:18;;;;;;;13.98;4.43;;;;;;;27.42;53.48;99106.19;8257711;28;20050;-75
2022/08/26 10:39:39;;;;;;;9.48;3.97;;;;;;;27.52;54.12;99110.81;8241337;28;20057;-75
2022/08/26 10:43:54;;;;;;;26.25;4.13;;;;;;;27.65;53.87;99097.91;8244807;28;20046;-74
2022/08/26 10:48:13;;;;;;;11.32;3.55;;;;;;;27.73;51.03;99096.56;8193268;29;20059;-74
2022/08/26 10:52:50;;;;;;;9.02;3.63;;;;;;;27.75;49.66;99096.94;8130035;29;20052;-73
2022/08/26 10:57:49;;;;;;;9.73;3.88;;;;;;;27.88;50.79;99095.09;8096924;29;20097;-74
2022/08/26 11:02:25;;;;;;;19.08;3.60;;;;;;;27.93;50.17;99088.25;8104557;29;20514;-74
2022/08/26 11:06:39;;;;;;;15.23;4.20;;;;;;;28.07;49.94;99086.00;8156116;28;20057;-74
2022/08/26 11:11:02;;;;;;;17.40;3.92;;;;;;;28.14;49.37;99085.88;8230026;28;20411;-75
2022/08/26 11:15:44;;;;;;;7.10;3.50;;;;;;;28.13;48.86;99084.31;8322728;28;20055;-74
2022/08/26 11:20:18;;;;;;;18.45;4.65;;;;;;;28.22;48.86;99074.63;8253537;28;20109;-75
2022/08/26 11:25:10;;;;;;;14.88;3.58;;;;;;;28.30;48.30;99070.50;8283259;28;20057;-75
2022/08/26 11:30:01;;;;;;;24.63;5.43;;;;;;;28.35;46.41;99070.00;8174097;29;20125;-75
2022/08/26 11:34:16;;;;;;;11.90;3.58;;;;;;;28.51;46.52;99058.94;8179737;29;20470;-74
2022/08/26 11:38:35;;;;;;;11.30;3.83;;;;;;;28.65;46.88;99058.63;8165338;29;20060;-74
2022/08/26 11:42:54;;;;;;;17.47;3.80;;;;;;;28.78;44.75;99051.19;8181019;29;20055;-74
2022/08/26 11:47:07;;;;;;;12.07;3.77;;;;;;;28.83;45.64;99052.69;8196485;29;20111;-75
2022/08/26 11:51:37;;;;;;;12.48;3.85;;;;;;;28.83;46.71;99047.13;8196964;29;20791;-75
2022/08/26 11:55:47;;;;;;;21.58;4.00;;;;;;;28.92;46.36;99045.31;8197761;28;20078;-75
2022/08/26 12:00:00;;;;;;;13.23;3.55;;;;;;;28.92;45.34;99050.84;8142937;29;20094;-74
2022/08/26 12:04:29;;;;;;;12.82;4.15;;;;;;;28.87;45.55;99043.03;8230583;28;20056;-75
2022/08/26 12:08:43;;;;;;;14.40;4.40;;;;;;;28.98;45.82;99038.00;8292525;28;20565;-75
2022/08/26 12:13:05;;;;;;;10.00;3.60;;;;;;;29.13;46.00;99032.13;8277492;28;20058;-75
2022/08/26 12:17:33;;;;;;;12.60;3.50;;;;;;;29.21;45.25;99027.94;8259643;28;20106;-74
2022/08/26 12:21:54;;;;;;;17.30;3.72;;;;;;;29.20;44.61;99015.25;8359818;28;20044;-75
2022/08/26 12:26:39;;;;;;;12.02;3.50;;;;;;;29.21;45.62;99019.59;8292762;28;20073;-75
2022/08/26 12:31:06;;;;;;;14.68;3.83;;;;;;;29.21;44.73;99022.38;8145772;29;20606;-74
2022/08/26 12:35:29;;;;;;;;;;;;;;;;;;;;;
2022/08/26 12:39:44;;;;;;;12.23;3.55;;;;;;;29.33;43.35;99013.34;8116149;29;20062;-74
2022/08/26 12:44:11;;;;;;;9.93;4.18;;;;;;;29.31;43.11;99004.63;8131994;29;20577;-75
2022/08/26 12:48:26;;;;;;;9.65;2.95;;;;;;;29.35;42.66;99005.34;8066532;29;20090;-74
2022/08/26 12:52:45;;;;;;;17.98;3.30;;;;;;;29.35;41.71;99005.34;8047948;29;20141;-74
2022/08/26 12:57:03;;;;;;;15.52;2.92;;;;;;;29.31;42.14;98982.38;8175653;29;20734;-76
2022/08/26 13:01:32;;;;;;;12.95;3.42;;;;;;;29.38;43.11;98976.66;8233068;28;20137;-75
2022/08/26 13:05:47;;;;;;;10.65;3.25;;;;;;;29.40;43.79;98974.19;8290543;28;20172;-74
2022/08/26 13:10:02;;;;;;;15.55;4.28;;;;;;;29.40;42.88;98968.63;8338505;28;20121;-75
2022/08/26 13:14:18;;;;;;;17.95;3.53;;;;;;;29.44;43.57;98969.34;8387501;28;20043;-74
2022/08/26 13:18:35;;;;;;;14.85;3.38;;;;;;;29.45;40.89;98965.34;8426712;28;20486;-74
2022/08/26 13:23:10;;;;;;;11.30;3.42;;;;;;;29.36;40.43;98967.97;8428181;28;20470;-75
2022/08/26 13:27:25;;;;;;;15.15;3.45;;;;;;;29.74;40.31;98949.41;8356590;28;20418;-75
2022/08/26 13:31:43;;;;;;;12.30;3.05;;;;;;;31.20;38.43;98959.59;8325725;28;20049;-74
2022/08/26 13:36:13;;;;;;;15.52;3.20;;;;;;;32.69;36.95;98951.25;8310535;28;20088;-74
2022/08/26 13:40:37;;;;;;;13.30;2.75;;;;;;;33.98;34.91;98947.28;8327495;28;20056;-74
2022/08/26 13:44:59;;;;;;;11.07;2.92;;;;;;;35.10;33.12;98945.88;8342118;28;20107;-74
2022/08/26 13:49:19;;;;;;;11.77;3.10;;;;;;;35.95;31.85;98952.66;8250249;28;20041;-74
2022/08/26 13:53:33;;;;;;;8.65;3.40;;;;;;;36.20;29.55;98935.22;8335186;28;20052;-74
2022/08/26 13:57:44;;;;;;;15.30;2.97;;;;;;;36.53;28.79;98934.19;8394599;28;20052;-74
2022/08/26 14:02:02;;;;;;;21.83;2.95;;;;;;;36.99;28.32;98932.28;8355572;28;20037;-74
2022/08/26 14:06:20;;;;;;;9.27;2.67;;;;;;;38.09;27.84;98924.78;8325140;28;20048;-75
2022/08/26 14:10:34;;;;;;;;;;;;;;;38.58;27.78;98926.44;8341080;28;20056;-75
2022/08/26 14:14:46;;;;;;;17.40;3.03;;;;;;;38.66;26.07;98922.63;8294319;28;19947;-75
2022/08/26 14:19:00;;;;;;;15.35;2.95;;;;;;;39.15;24.98;98929.06;8279471;28;20489;-75
2022/08/26 14:23:15;;;;;;;18.25;2.78;;;;;;;39.31;24.68;98919.88;8318428;28;20399;-75
2022/08/26 14:27:30;;;;;;;14.73;3.10;;;;;;;39.50;24.95;98920.97;8352973;28;20115;-74
2022/08/26 14:31:44;;;;;;;11.85;2.90;;;;;;;39.91;24.67;98926.19;8359333;28;20060;-75
2022/08/26 14:36:26;;;;;;;22.65;3.50;;;;;;;40.44;24.00;98917.47;8329719;28;20103;-75
2022/08/26 14:40:28;;;;;;;17.70;2.90;;;;;;;39.97;24.19;98924.16;8326342;28;20049;-75
2022/08/26 14:44:44;;;;;;;11.40;3.05;;;;;;;37.91;26.19;98921.00;8320510;28;20041;-74
2022/08/26 14:48:53;;;;;;;10.85;2.50;;;;;;;36.42;28.56;98922.75;8283150;28;20533;-74
2022/08/26 14:57:39;;;;;;;12.80;2.83;;;;;;;34.28;30.50;98909.84;8381070;28;20182;-76
2022/08/26 15:01:57;;;;;;;17.90;2.95;;;;;;;33.30;31.60;98904.75;8396588;28;20135;-75
2022/08/26 15:06:06;;;;;;;13.35;3.17;;;;;;;32.66;33.45;98907.44;8406447;28;20061;-75
2022/08/26 15:10:26;;;;;;;11.70;2.70;;;;;;;32.22;34.96;98896.41;8379508;28;20134;-75
2022/08/26 15:14:41;;;;;;;12.20;2.83;;;;;;;31.83;35.66;98899.94;8380773;28;20510;-75
2022/08/26 15:18:58;;;;;;;15.52;3.10;;;;;;;31.57;36.40;98895.72;8380320;28;20084;-75
2022/08/26 15:23:13;;;;;;;9.63;2.55;;;;;;;31.17;36.18;98901.94;8329513;28;20518;-75
2022/08/26 15:27:33;;;;;;;14.35;3.33;;;;;;;30.78;36.82;98896.88;8295838;28;20119;-75
2022/08/26 15:31:45;;;;;;;13.80;2.83;;;;;;;30.47;37.37;98888.34;8326877;28;20045;-75
2022/08/26 15:35:54;;;;;;;12.63;2.90;;;;;;;30.31;38.04;98886.44;8286333;28;20061;-74
2022/08/26 15:40:02;;;;;;;15.32;3.00;;;;;;;30.04;38.40;98894.47;8349878;28;20053;-75
2022/08/26 15:44:20;;;;;;;12.95;3.35;;;;;;;29.89;38.71;98898.88;8320044;28;20139;-74
2022/08/26 15:48:31;;;;;;;14.48;3.05;;;;;;;29.64;38.34;98889.28;8391331;28;20051;-75
2022/08/26 15:52:45;;;;;;;14.80;2.80;;;;;;;29.44;38.59;98885.88;8378690;28;20052;-75
2022/08/26 15:57:07;;;;;;;11.60;3.10;;;;;;;29.32;38.99;98878.28;8387888;28;20416;-74
2022/08/26 16:01:09;;;;;;;15.57;3.00;;;;;;;29.16;39.78;98886.63;8306276;28;20049;-74
2022/08/26 16:05:09;;;;;;;14.85;2.97;;;;;;;29.03;39.66;98874.69;8346704;28;20053;-74
2022/08/26 16:09:11;;;;;;;15.80;2.80;;;;;;;28.84;39.23;98871.59;8345416;28;20045;-74
2022/08/26 16:13:15;;;;;;;17.58;3.00;;;;;;;28.73;40.14;98859.97;8324667;28;20045;-75
2022/08/26 16:17:17;;;;;;;16.30;2.95;;;;;;;28.57;40.50;98862.75;8361971;28;20049;-75
2022/08/26 16:21:26;;;;;;;16.63;3.15;;;;;;;28.46;41.03;98862.22;8353807;28;20553;-74
2022/08/26 16:25:28;;;;;;;14.57;3.20;;;;;;;28.28;41.79;98861.88;8404680;28;20420;-74
2022/08/26 16:29:30;;;;;;;8.27;2.70;;;;;;;28.11;42.52;98861.06;8428045;28;20443;-75
2022/08/26 16:33:31;;;;;;;13.65;2.90;;;;;;;27.95;42.68;98856.28;8420411;28;20062;-75
2022/08/26 16:37:32;;;;;;;16.35;3.50;;;;;;;27.76;42.76;98859.84;8408651;28;20127;-75
2022/08/26 16:41:34;;;;;;;10.18;2.97;;;;;;;27.68;43.21;98864.00;8342643;28;20049;-74
2022/08/26 16:45:36;;;;;;;12.48;3.10;;;;;;;27.56;43.46;98859.09;8366168;28;20052;-74
2022/08/26 16:49:38;;;;;;;13.13;2.80;;;;;;;27.42;44.03;98862.16;8341316;28;20049;-74
2022/08/26 16:53:39;;;;;;;19.85;3.70;;;;;;;27.27;44.02;98851.34;8323030;28;20064;-75
2022/08/26 16:57:41;;;;;;;11.68;3.17;;;;;;;27.14;44.45;98850.41;8357764;28;20045;-74
2022/08/26 17:01:42;;;;;;;22.42;3.15;;;;;;;27.03;44.31;98841.53;8357220;28;20068;-74
2022/08/26 17:05:43;;;;;;;12.98;3.35;;;;;;;26.91;45.19;98849.69;8318168;28;20734;-75
2022/08/26 17:09:44;;;;;;;16.98;3.35;;;;;;;26.75;45.47;98842.81;8357300;28;20103;-74
2022/08/26 17:13:45;;;;;;;8.23;3.45;;;;;;;26.62;45.46;98832.75;8412489;28;20043;-75
2022/08/26 17:17:46;;;;;;;21.48;3.88;;;;;;;26.51;45.96;98838.50;8428097;28;20401;-75
2022/08/26 17:21:47;;;;;;;20.10;5.40;;;;;;;26.34;46.67;98843.13;8414891;28;20509;-74
2022/08/26 17:25:48;;;;;;;15.45;4.55;;;;;;;26.20;47.25;98837.78;8415371;28;20071;-75
2022/08/26 17:29:49;;;;;;;15.00;4.13;;;;;;;26.03;47.84;98838.84;8427034;28;20048;-75
2022/08/26 17:33:51;;;;;;;13.13;4.93;;;;;;;25.92;48.49;98846.50;8427904;28;20040;-75
2022/08/26 17:37:53;;;;;;;24.90;4.03;;;;;;;25.75;49.24;98847.56;8391157;28;20401;-75
2022/08/26 17:41:53;;;;;;;14.07;3.85;;;;;;;25.68;48.88;98853.19;8427027;28;20047;-75
2022/08/26 17:45:59;;;;;;;12.40;3.53;;;;;;;25.54;49.26;98849.38;8390947;28;20485;-75
2022/08/26 17:50:00;;;;;;;18.27;3.95;;;;;;;25.41;49.93;98853.88;8426514;28;20035;-74
2022/08/26 17:54:01;;;;;;;13.93;4.30;;;;;;;25.28;50.56;98847.31;8418575;28;20058;-75
2022/08/26 17:58:02;;;;;;;19.67;5.32;;;;;;;25.16;50.07;98839.59;8426481;28;20044;-75
2022/08/26 18:02:03;;;;;;;17.85;5.15;;;;;;;25.10;50.19;98846.75;8425817;28;20078;-74
2022/08/26 18:06:12;;;;;;;20.45;3.97;;;;;;;25.00;50.97;98853.19;8425245;28;20047;-73
2022/08/26 18:10:15;;;;;;;20.52;3.55;;;;;;;24.89;50.99;98842.25;8419787;28;20127;-73
2022/08/26 18:14:16;;;;;;;11.43;3.53;;;;;;;24.86;50.44;98845.00;8426140;28;20048;-73
2022/08/26 18:18:17;;;;;;;14.73;3.40;;;;;;;24.85;50.17;98840.69;8426264;28;20575;-74
2022/08/26 18:22:18;;;;;;;29.17;4.45;;;;;;;24.79;50.16;98843.13;8416949;28;20045;-74
2022/08/26 18:26:32;;;;;;;13.55;3.25;;;;;;;24.71;50.46;98842.38;8421043;28;20412;-74
2022/08/26 18:30:33;;;;;;;16.65;3.67;;;;;;;24.64;50.63;98853.50;8425799;28;20052;-74
2022/08/26 18:34:34;;;;;;;23.15;4.00;;;;;;;24.58;50.87;98855.16;8392753;28;20056;-74
2022/08/26 18:38:35;;;;;;;24.75;3.63;;;;;;;24.52;50.74;98854.00;8424775;28;20540;-75
2022/08/26 18:42:40;;;;;;;14.10;3.97;;;;;;;24.53;50.11;98852.03;8422251;28;20459;-74
2022/08/26 18:46:42;;;;;;;14.82;3.03;;;;;;;24.57;49.17;98864.63;8404143;28;20101;-73
2022/08/26 18:50:43;;;;;;;14.57;3.70;;;;;;;24.60;49.20;98861.03;8396279;28;20093;-74
2022/08/26 18:54:45;;;;;;;19.73;4.18;;;;;;;24.59;49.55;98861.44;8424981;28;20040;-73
2022/08/26 18:58:47;;;;;;;14.25;3.53;;;;;;;24.53;49.01;98858.34;8424758;28;20102;-73
2022/08/26 19:02:48;;;;;;;17.42;3.28;;;;;;;24.51;48.97;98860.72;8422893;28;20060;-73
2022/08/26 19:06:49;;;;;;;11.02;3.30;;;;;;;24.51;48.87;98860.72;8418714;28;20385;-73
2022/08/26 19:10:50;;;;;;;19.77;3.40;;;;;;;24.45;48.76;98867.88;8403857;28;20135;-73
2022/08/26 19:14:51;;;;;;;14.98;3.67;;;;;;;24.43;48.59;98870.25;8420429;28;20125;-73
2022/08/26 19:18:53;;;;;;;14.52;3.92;;;;;;;24.42;49.12;98868.69;8394347;28;20052;-73
2022/08/26 19:22:54;;;;;;;13.82;3.22;;;;;;;24.33;49.24;98876.63;8415843;28;20044;-74
2022/08/26 19:26:59;;;;;;;16.50;3.55;;;;;;;24.24;49.53;98873.56;8419745;28;20052;-74
2022/08/26 19:31:01;;;;;;;12.88;3.15;;;;;;;24.20;49.38;98872.81;8412259;28;20044;-72
2022/08/26 19:35:02;;;;;;;12.73;3.60;;;;;;;24.20;49.44;98872.81;8425236;28;20048;-74
2022/08/26 19:39:04;;;;;;;13.70;3.40;;;;;;;24.16;49.22;98888.56;8416890;28;20040;-73
2022/08/26 19:43:06;;;;;;;22.63;4.45;;;;;;;24.14;49.12;98879.91;8421000;28;20170;-73
2022/08/26 19:47:09;;;;;;;19.75;4.10;;;;;;;24.12;49.33;98887.78;8405748;28;20040;-73